Time;durP1;ratioP1;P1;durP2;ratioP2;P2;SDS_P1;SDS_P2;PMS_P1;PMS_P2;Temp;Humidity;BMP_temperature;BMP_pressure;BME280_temperature;BME280_humidity;BME280_pressure;Samples;Min_cycle;Max_cycle;Signal;HPM_P1;HPM_P2
2021/01/12 00:00:10;;;;;;;1.25;0.77;;;;;;;8.84;91.96;100374.00;4994356;28;20070;-57
2021/01/12 00:02:37;;;;;;;1.63;0.57;;;;;;;8.86;91.87;100388.28;5002659;28;20054;-55
2021/01/12 00:05:06;;;;;;;1.77;1.05;;;;;;;8.85;91.91;100389.44;4973916;28;20034;-57
2021/01/12 00:07:34;;;;;;;0.73;0.50;;;;;;;8.87;91.94;100387.13;4989230;28;20034;-58
2021/01/12 00:10:00;;;;;;;0.85;0.70;;;;;;;8.87;91.90;100387.13;5012086;28;20084;-58
2021/01/12 00:12:27;;;;;;;1.00;0.75;;;;;;;8.89;91.77;100384.84;5009191;28;20156;-59
2021/01/12 00:14:53;;;;;;;1.38;0.80;;;;;;;8.89;92.01;100398.66;4991783;28;20057;-60
2021/01/12 00:17:20;;;;;;;0.68;0.63;;;;;;;8.88;91.96;100387.94;4991175;28;20120;-61
2021/01/12 00:19:46;;;;;;;0.50;0.40;;;;;;;8.90;91.98;100386.44;4991682;28;20047;-61
2021/01/12 00:22:15;;;;;;;0.43;0.38;;;;;;;8.91;91.98;100390.03;4991470;28;20421;-57
2021/01/12 00:24:47;;;;;;;0.80;0.60;;;;;;;8.91;91.98;100381.75;4991005;28;20120;-56
2021/01/12 00:27:14;;;;;;;1.70;0.87;;;;;;;8.91;91.79;100382.56;4992226;28;20046;-58
2021/01/12 00:29:41;;;;;;;0.80;0.50;;;;;;;8.92;91.86;100383.38;4991338;28;20092;-61
2021/01/12 00:32:07;;;;;;;1.70;0.93;;;;;;;8.92;91.89;100384.16;4982495;28;20074;-61
2021/01/12 00:34:34;;;;;;;1.23;0.73;;;;;;;8.91;91.91;100377.03;4971774;28;20050;-59
2021/01/12 00:37:01;;;;;;;0.68;0.60;;;;;;;8.93;91.78;100391.28;4992001;28;20382;-59
2021/01/12 00:39:27;;;;;;;1.02;0.65;;;;;;;8.93;91.78;100383.00;4973216;28;20050;-60
2021/01/12 00:41:55;;;;;;;0.80;0.80;;;;;;;8.92;91.73;100388.88;4990096;28;20057;-59
2021/01/12 00:44:23;;;;;;;2.00;0.57;;;;;;;8.92;91.82;100395.19;4990846;28;20042;-60
2021/01/12 00:46:50;;;;;;;0.63;0.63;;;;;;;8.93;91.88;100382.19;4990837;28;20077;-60
2021/01/12 00:49:19;;;;;;;1.10;0.50;;;;;;;8.94;91.76;100389.34;4992026;28;20048;-60
2021/01/12 00:51:46;;;;;;;1.75;0.60;;;;;;;8.93;91.82;100391.28;4974046;28;20100;-59
2021/01/12 00:54:14;;;;;;;0.43;0.43;;;;;;;8.92;91.73;100381.38;4990152;28;20338;-59
2021/01/12 00:56:47;;;;;;;3.13;1.52;;;;;;;8.93;91.73;100380.25;4990128;28;20050;-61
2021/01/12 00:59:14;;;;;;;0.60;0.47;;;;;;;8.93;91.81;100383.00;4990014;28;20444;-59
2021/01/12 01:01:42;;;;;;;0.40;0.40;;;;;;;8.93;91.83;100384.97;4979159;28;20038;-61
2021/01/12 01:04:12;;;;;;;0.60;0.30;;;;;;;8.93;91.85;100391.28;4990095;28;20061;-60
2021/01/12 01:06:38;;;;;;;0.63;0.40;;;;;;;8.96;91.71;100393.38;4990348;28;20488;-60
2021/01/12 01:09:05;;;;;;;0.93;0.68;;;;;;;8.96;91.82;100382.31;4974981;28;20129;-58
2021/01/12 01:11:32;;;;;;;1.45;0.40;;;;;;;8.97;91.71;100383.13;4983664;28;20403;-61
2021/01/12 01:13:59;;;;;;;1.08;0.60;;;;;;;8.97;91.84;100386.72;4990643;28;20552;-59
2021/01/12 01:16:32;;;;;;;0.32;0.32;;;;;;;8.96;91.82;100398.88;4990359;28;20056;-59
2021/01/12 01:18:59;;;;;;;0.50;0.50;;;;;;;8.97;91.56;100394.19;4974392;28;20057;-60
2021/01/12 01:21:26;;;;;;;0.40;0.40;;;;;;;8.96;91.76;100396.13;4990904;28;20039;-58
2021/01/12 01:23:53;;;;;;;0.68;0.47;;;;;;;8.96;91.91;100401.66;4992021;28;20483;-59
2021/01/12 01:26:20;;;;;;;0.55;0.50;;;;;;;8.96;91.88;100412.69;4974401;28;20057;-59
2021/01/12 01:28:48;;;;;;;0.40;0.40;;;;;;;8.97;91.95;100406.03;4991755;28;20070;-60
2021/01/12 01:31:14;;;;;;;3.63;1.10;;;;;;;8.97;91.91;100403.28;4993602;28;20468;-61
2021/01/12 01:33:41;;;;;;;0.52;0.52;;;;;;;8.99;91.70;100416.72;4995086;28;20042;-60
2021/01/12 01:36:11;;;;;;;0.45;0.45;;;;;;;8.98;91.88;100432.47;4995044;28;20093;-60
2021/01/12 01:38:38;;;;;;;2.13;0.57;;;;;;;8.98;91.89;100438.00;4993796;28;20508;-56
2021/01/12 01:41:06;;;;;;;3.42;1.02;;;;;;;8.98;92.04;100438.00;4975192;28;20042;-57
2021/01/12 01:43:33;;;;;;;0.45;0.43;;;;;;;8.97;91.94;100435.59;4995401;28;20439;-58
2021/01/12 01:46:00;;;;;;;0.80;0.28;;;;;;;8.96;91.89;100428.44;4994059;28;20125;-58
2021/01/12 01:48:27;;;;;;;1.60;0.17;;;;;;;8.95;91.84;100438.69;4995302;28;20057;-54
2021/01/12 01:50:54;;;;;;;0.45;0.15;;;;;;;8.91;91.76;100440.53;4994738;28;20084;-54
2021/01/12 01:53:21;;;;;;;0.00;0.00;;;;;;;8.89;91.77;100440.06;4994837;28;20492;-62
2021/01/12 01:55:52;;;;;;;0.15;0.10;;;;;;;8.88;91.92;100443.97;4993137;28;20433;-61
2021/01/12 01:58:19;;;;;;;0.03;0.03;;;;;;;8.86;91.71;100440.75;4992515;28;20058;-60
2021/01/12 02:00:54;;;;;;;0.30;0.30;;;;;;;8.86;91.76;100437.16;4992443;28;20058;-60
2021/01/12 02:03:30;;;;;;;0.00;0.00;;;;;;;8.86;91.58;100434.41;4994931;28;20042;-61
2021/01/12 02:06:02;;;;;;;0.73;0.10;;;;;;;8.86;91.35;100426.94;4993928;28;20050;-61
2021/01/12 02:09:04;;;;;;;0.00;0.00;;;;;;;8.83;91.33;100441.44;4995238;28;20046;-59
2021/01/12 02:11:35;;;;;;;0.30;0.28;;;;;;;8.81;91.52;100448.44;4951530;28;20062;-60
2021/01/12 02:14:04;;;;;;;0.52;0.25;;;;;;;8.78;91.63;100449.09;4995090;28;20504;-60
2021/01/12 02:16:33;;;;;;;0.20;0.20;;;;;;;8.79;91.58;100443.22;4993724;28;20048;-60
2021/01/12 02:19:01;;;;;;;0.20;0.20;;;;;;;8.79;91.45;100446.00;4976515;28;20487;-61
2021/01/12 02:21:28;;;;;;;0.55;0.10;;;;;;;8.79;91.52;100442.44;4993316;28;20484;-61
2021/01/12 02:23:57;;;;;;;0.55;0.20;;;;;;;8.78;91.49;100455.44;4993580;28;20046;-60
2021/01/12 02:26:25;;;;;;;1.05;0.13;;;;;;;8.78;91.32;100449.09;4993869;28;20046;-61
2021/01/12 02:28:51;;;;;;;0.35;0.10;;;;;;;8.80;91.30;100457.84;4976518;28;20069;-61
2021/01/12 02:31:19;;;;;;;6.80;1.23;;;;;;;8.80;91.44;100469.69;4994816;28;20050;-60
2021/01/12 02:33:48;;;;;;;0.20;0.10;;;;;;;8.80;91.42;100469.69;4993524;28;20042;-62
2021/01/12 02:36:19;;;;;;;0.10;0.10;;;;;;;8.79;91.44;100490.16;4993923;28;20042;-61
2021/01/12 02:38:45;;;;;;;0.70;0.20;;;;;;;8.80;91.44;100485.44;4993960;28;20043;-61
2021/01/12 02:41:17;;;;;;;0.30;0.30;;;;;;;8.78;91.49;100499.59;4993646;28;20137;-60
2021/01/12 02:43:44;;;;;;;;;;;;;;;8.77;91.59;100497.97;4993989;28;20042;-62
2021/01/12 02:46:15;;;;;;;0.30;0.30;;;;;;;8.79;91.52;100492.13;4993943;28;19940;-61
2021/01/12 02:48:42;;;;;;;0.10;0.10;;;;;;;8.79;91.47;100498.44;4992722;28;20125;-60
2021/01/12 02:51:09;;;;;;;0.47;0.20;;;;;;;8.81;91.53;100495.34;4992381;28;20085;-61
2021/01/12 02:53:35;;;;;;;0.25;0.10;;;;;;;8.81;91.46;100501.69;4976117;28;20069;-55
2021/01/12 02:56:02;;;;;;;1.30;0.20;;;;;;;8.83;91.21;100499.38;4993683;28;20042;-60
2021/01/12 02:58:29;;;;;;;0.20;0.10;;;;;;;8.83;91.41;100502.16;4976470;28;20058;-60
2021/01/12 03:00:55;;;;;;;0.10;0.10;;;;;;;8.83;91.45;100502.16;4995431;28;20484;-61
2021/01/12 03:03:22;;;;;;;0.38;0.13;;;;;;;8.84;91.46;100506.50;4993157;28;20050;-61
2021/01/12 03:05:49;;;;;;;0.25;0.20;;;;;;;8.85;91.25;100510.91;4993599;28;20030;-62
2021/01/12 03:08:15;;;;;;;0.85;0.10;;;;;;;8.85;91.53;100510.91;4993379;28;20129;-61
2021/01/12 03:10:41;;;;;;;0.65;0.20;;;;;;;8.86;91.50;100507.00;4980225;28;20077;-61
2021/01/12 03:13:08;;;;;;;0.55;0.10;;;;;;;8.87;91.46;100522.41;4993026;28;20073;-60
2021/01/12 03:15:39;;;;;;;0.15;0.05;;;;;;;8.86;91.51;100523.56;4976136;28;20491;-60
2021/01/12 03:18:06;;;;;;;0.28;0.13;;;;;;;8.88;91.39;100517.69;4992504;28;20061;-59
2021/01/12 03:20:33;;;;;;;0.20;0.20;;;;;;;8.88;91.41;100521.25;4991670;28;20089;-60
2021/01/12 03:23:01;;;;;;;0.32;0.20;;;;;;;8.90;91.56;100523.66;4993653;28;20034;-60
2021/01/12 03:25:27;;;;;;;1.35;0.20;;;;;;;8.90;91.38;100520.91;4992993;28;20042;-60
2021/01/12 03:27:53;;;;;;;0.15;0.15;;;;;;;8.90;91.41;100524.47;4993546;28;20050;-60
2021/01/12 03:30:21;;;;;;;0.98;0.30;;;;;;;8.91;91.47;100522.53;4993192;28;20484;-59
2021/01/12 03:32:47;;;;;;;0.50;0.40;;;;;;;8.90;91.29;100535.53;4992345;28;20038;-63
2021/01/12 03:35:14;;;;;;;0.50;0.45;;;;;;;8.89;91.34;100536.69;4993694;28;20161;-60
2021/01/12 03:37:40;;;;;;;1.17;1.05;;;;;;;8.84;91.42;100533.34;4992512;28;20077;-61
2021/01/12 03:40:07;;;;;;;3.08;1.70;;;;;;;8.81;91.40;100532.06;4989453;28;20114;-60
2021/01/12 03:42:34;;;;;;;2.42;1.85;;;;;;;8.80;91.50;100533.19;4993108;28;20050;-60
2021/01/12 03:45:03;;;;;;;3.65;2.15;;;;;;;8.78;91.50;100535.50;4993945;28;20101;-61
2021/01/12 03:47:30;;;;;;;3.63;2.17;;;;;;;8.76;91.40;100545.25;4975966;28;20125;-62
2021/01/12 03:49:56;;;;;;;2.67;1.67;;;;;;;8.73;91.34;100546.75;4991557;28;20097;-60
2021/01/12 03:52:22;;;;;;;1.08;0.98;;;;;;;8.65;91.29;100552.31;4991954;28;20113;-61
2021/01/12 03:54:49;;;;;;;0.88;0.68;;;;;;;8.58;91.02;100555.59;4992911;28;20506;-60
2021/01/12 03:57:15;;;;;;;1.13;0.40;;;;;;;8.53;91.01;100553.06;4994062;28;20050;-63
2021/01/12 03:59:41;;;;;;;0.30;0.30;;;;;;;8.48;91.11;100561.53;4994556;28;20128;-61
2021/01/12 04:02:08;;;;;;;0.40;0.20;;;;;;;8.44;90.71;100566.13;5001702;28;20042;-60
2021/01/12 04:04:35;;;;;;;0.20;0.20;;;;;;;8.41;90.55;100573.13;4993314;28;20377;-61
2021/01/12 04:07:01;;;;;;;0.00;0.00;;;;;;;8.37;90.53;100571.34;4975014;28;20050;-60
2021/01/12 04:09:28;;;;;;;0.40;0.20;;;;;;;8.34;90.45;100580.31;4994686;28;20061;-60
2021/01/12 04:11:55;;;;;;;0.10;0.10;;;;;;;8.32;90.28;100580.63;4996691;28;20050;-60
2021/01/12 04:14:21;;;;;;;1.27;0.30;;;;;;;8.27;90.08;100588.28;4992802;28;20042;-59
2021/01/12 04:16:49;;;;;;;0.20;0.20;;;;;;;8.23;90.41;100588.13;4974189;28;20038;-61
2021/01/12 04:19:16;;;;;;;2.35;0.20;;;;;;;8.21;90.07;100589.56;4974991;28;20038;-60
2021/01/12 04:21:42;;;;;;;0.55;0.20;;;;;;;8.20;90.03;100590.72;4991356;28;20096;-60
2021/01/12 04:24:09;;;;;;;0.05;0.05;;;;;;;8.21;89.92;100589.56;4992437;28;20046;-60
2021/01/12 04:26:35;;;;;;;0.15;0.05;;;;;;;8.17;89.74;100589.44;4991957;28;20046;-60
2021/01/12 04:29:02;;;;;;;0.20;0.20;;;;;;;8.17;89.76;100596.91;4992323;28;20061;-60
2021/01/12 04:31:30;;;;;;;0.80;0.10;;;;;;;8.13;89.63;100596.75;4974003;28;20049;-58
2021/01/12 04:33:56;;;;;;;4.47;1.00;;;;;;;8.13;89.52;100595.97;4991595;28;20054;-58
2021/01/12 04:36:24;;;;;;;0.47;0.10;;;;;;;8.12;89.54;100594.34;4991564;28;20495;-60
2021/01/12 04:38:50;;;;;;;0.10;0.10;;;;;;;8.07;89.46;100603.63;4992006;28;20042;-60
2021/01/12 04:41:16;;;;;;;3.38;0.20;;;;;;;8.07;89.42;100597.28;4991551;28;20432;-59
2021/01/12 04:43:45;;;;;;;0.20;0.20;;;;;;;8.07;89.55;100600.03;4991184;28;20690;-59
2021/01/12 04:46:11;;;;;;;0.93;0.20;;;;;;;8.05;89.37;100602.34;4990797;28;20049;-60
2021/01/12 04:48:37;;;;;;;1.17;0.30;;;;;;;8.04;89.52;100603.47;4973633;28;20057;-60
2021/01/12 04:51:10;;;;;;;0.20;0.20;;;;;;;8.02;89.51;100606.56;4991561;28;20034;-60
2021/01/12 04:53:46;;;;;;;0.30;0.20;;;;;;;7.99;89.38;100602.50;4974211;28;20069;-59
2021/01/12 04:56:20;;;;;;;0.28;0.28;;;;;;;7.99;89.26;100601.72;4991151;28;20050;-60
2021/01/12 04:58:51;;;;;;;0.17;0.10;;;;;;;7.98;89.30;100598.13;4974104;28;20058;-59
2021/01/12 05:01:19;;;;;;;0.13;0.10;;;;;;;7.95;89.15;100606.25;4998735;28;20117;-58
2021/01/12 05:03:48;;;;;;;1.55;0.20;;;;;;;7.95;89.24;100609.81;4992934;28;20069;-59
2021/01/12 05:06:16;;;;;;;0.32;0.03;;;;;;;7.92;89.20;100602.22;4998023;28;20058;-61
2021/01/12 05:08:44;;;;;;;1.27;0.20;;;;;;;7.93;89.14;100605.78;4997943;28;20045;-54
2021/01/12 05:11:13;;;;;;;0.20;0.20;;;;;;;7.94;89.17;100608.19;4981669;28;20054;-62
2021/01/12 05:13:45;;;;;;;0.25;0.25;;;;;;;7.94;89.03;100602.69;4998470;28;20066;-60
2021/01/12 05:16:12;;;;;;;0.40;0.10;;;;;;;7.94;88.86;100618.44;4997459;28;20125;-60
2021/01/12 05:18:41;;;;;;;0.25;0.20;;;;;;;7.89;89.05;100611.13;4997797;28;20403;-59
2021/01/12 05:21:12;;;;;;;0.25;0.20;;;;;;;7.90;89.04;100611.94;4997577;28;20046;-59
2021/01/12 05:24:08;;;;;;;1.15;0.30;;;;;;;7.88;88.88;100619.75;4997622;28;20117;-60
2021/01/12 05:26:37;;;;;;;0.47;0.35;;;;;;;7.87;88.70;100609.84;4981019;28;20122;-60
2021/01/12 05:29:06;;;;;;;0.55;0.30;;;;;;;7.87;88.96;100618.13;4998536;28;20050;-60
2021/01/12 05:31:36;;;;;;;0.77;0.50;;;;;;;7.86;88.88;100628.34;4995984;28;20112;-60
2021/01/12 05:34:08;;;;;;;1.48;0.35;;;;;;;7.86;88.79;100631.09;4997711;28;20053;-59
2021/01/12 05:36:49;;;;;;;2.20;1.13;;;;;;;7.84;88.62;100633.38;5000996;28;20090;-59
2021/01/12 05:39:21;;;;;;;2.60;0.30;;;;;;;7.85;88.86;100643.28;4977647;28;20122;-57
2021/01/12 05:41:50;;;;;;;0.20;0.20;;;;;;;7.83;88.85;100645.56;4988254;28;20034;-57
2021/01/12 05:44:19;;;;;;;0.55;0.50;;;;;;;7.84;88.91;100652.66;4980214;28;20396;-55
2021/01/12 05:46:50;;;;;;;1.08;0.47;;;;;;;7.84;88.78;100658.19;4979850;28;20034;-55
2021/01/12 05:49:19;;;;;;;1.80;0.22;;;;;;;7.81;88.74;100658.84;4997862;28;20134;-57
2021/01/12 05:51:48;;;;;;;0.63;0.40;;;;;;;7.78;88.77;100661.44;4997559;28;20065;-58
2021/01/12 05:54:26;;;;;;;0.43;0.40;;;;;;;7.77;88.57;100662.56;5003599;28;20046;-58
2021/01/12 05:57:00;;;;;;;0.65;0.40;;;;;;;7.73;88.67;100665.16;4997766;28;20073;-59
2021/01/12 05:59:29;;;;;;;0.55;0.40;;;;;;;7.74;88.85;100669.56;4996882;28;20074;-59
2021/01/12 06:02:02;;;;;;;3.53;0.50;;;;;;;7.73;88.85;100675.41;4997114;28;20062;-62
2021/01/12 06:04:29;;;;;;;1.05;0.40;;;;;;;7.70;88.74;100674.13;4983825;28;20049;-59
2021/01/12 06:06:56;;;;;;;2.58;0.43;;;;;;;7.70;88.90;100668.59;4998000;28;20085;-60
2021/01/12 06:09:23;;;;;;;0.57;0.30;;;;;;;7.69;88.85;100666.16;4996678;28;20078;-59
2021/01/12 06:11:52;;;;;;;0.57;0.47;;;;;;;7.68;88.83;100670.84;4997263;28;20030;-62
2021/01/12 06:14:24;;;;;;;0.75;0.50;;;;;;;7.67;88.73;100663.75;4997861;28;20050;-59
2021/01/12 06:16:51;;;;;;;1.48;1.05;;;;;;;7.68;88.69;100678.31;4976159;28;20484;-58
2021/01/12 06:19:22;;;;;;;1.88;0.60;;;;;;;7.66;88.80;100681.41;4994177;28;20050;-59
2021/01/12 06:21:55;;;;;;;2.72;0.50;;;;;;;7.64;88.72;100683.69;4992312;28;20042;-60
2021/01/12 06:24:30;;;;;;;1.48;0.75;;;;;;;7.65;88.60;100687.25;4993884;28;20084;-60
2021/01/12 06:26:58;;;;;;;2.47;0.80;;;;;;;7.66;88.66;100695.19;4977050;28;20042;-59
2021/01/12 06:29:24;;;;;;;1.58;0.73;;;;;;;7.64;88.71;100708.50;4976670;28;20132;-59
2021/01/12 06:31:50;;;;;;;1.10;0.75;;;;;;;7.59;88.68;100711.41;4993566;28;20129;-60
2021/01/12 06:34:21;;;;;;;2.28;1.15;;;;;;;7.59;88.79;100705.91;4993993;28;20121;-58
2021/01/12 06:36:52;;;;;;;2.33;0.90;;;;;;;7.59;88.69;100710.59;4993752;28;20066;-62
2021/01/12 06:39:29;;;;;;;1.13;0.82;;;;;;;7.60;88.74;100706.72;4976930;28;20042;-60
2021/01/12 06:41:55;;;;;;;2.25;1.20;;;;;;;7.61;88.52;100713.81;4993566;28;20074;-59
2021/01/12 06:44:21;;;;;;;1.67;1.00;;;;;;;7.57;88.62;100719.16;4994032;28;20129;-58
2021/01/12 06:46:50;;;;;;;3.60;1.17;;;;;;;7.60;88.71;100717.75;4987051;28;20428;-60
2021/01/12 06:49:24;;;;;;;2.47;1.80;;;;;;;7.58;88.69;100718.03;4993932;28;20078;-58
2021/01/12 06:52:13;;;;;;;2.53;1.70;;;;;;;7.52;88.49;100722.09;4993235;28;20089;-60
2021/01/12 06:54:41;;;;;;;2.58;2.20;;;;;;;7.48;88.66;100734.09;4993884;28;20097;-60
2021/01/12 06:57:16;;;;;;;2.70;1.90;;;;;;;7.40;88.53;100741.22;4993569;28;20047;-60
2021/01/12 06:59:47;;;;;;;6.30;1.92;;;;;;;7.29;88.40;100738.00;4994262;28;20073;-60
2021/01/12 07:02:26;;;;;;;3.95;1.98;;;;;;;7.22;88.32;100743.19;4994857;28;20100;-59
2021/01/12 07:04:59;;;;;;;5.28;2.17;;;;;;;7.20;88.31;100758.41;4975956;28;20052;-56
2021/01/12 07:07:31;;;;;;;5.97;1.65;;;;;;;7.12;88.20;100772.97;4994141;28;20042;-57
2021/01/12 07:10:05;;;;;;;3.70;1.58;;;;;;;7.11;88.35;100771.34;4999654;28;20054;-57
2021/01/12 07:12:31;;;;;;;2.15;1.45;;;;;;;7.07;88.07;100771.16;4993842;28;20082;-59
2021/01/12 07:15:03;;;;;;;5.32;1.70;;;;;;;7.04;87.99;100771.00;4993405;28;20074;-58
2021/01/12 07:17:40;;;;;;;5.88;1.80;;;;;;;7.02;87.60;100790.56;4993100;28;20078;-59
2021/01/12 07:20:19;;;;;;;2.85;1.48;;;;;;;6.97;87.89;100793.47;4993525;28;20039;-59
2021/01/12 07:22:51;;;;;;;5.00;2.85;;;;;;;6.93;87.82;100799.94;4991510;28;20030;-60
2021/01/12 07:25:19;;;;;;;;;;;;;;;6.88;88.04;100800.09;4993378;28;20050;-57
2021/01/12 07:28:16;;;;;;;6.35;2.13;;;;;;;6.88;88.00;100805.59;4992858;28;19922;-61
2021/01/12 07:30:45;;;;;;;3.65;2.60;;;;;;;6.84;87.75;100805.44;4975309;28;20444;-59
2021/01/12 07:33:17;;;;;;;7.43;2.42;;;;;;;6.84;88.01;100810.09;4991877;28;20038;-59
2021/01/12 07:35:47;;;;;;;5.70;2.10;;;;;;;6.83;88.14;100816.75;4993458;28;20069;-58
2021/01/12 07:38:18;;;;;;;3.47;1.95;;;;;;;6.84;88.13;100821.94;4992804;28;20444;-59
2021/01/12 07:40:45;;;;;;;6.00;2.77;;;;;;;6.85;87.81;100829.06;4992109;28;20069;-59
2021/01/12 07:43:19;;;;;;;7.65;2.47;;;;;;;6.80;88.07;100828.41;4993021;28;20097;-59
2021/01/12 07:45:50;;;;;;;7.38;2.70;;;;;;;6.78;88.00;100833.41;4993147;28;20635;-60
2021/01/12 07:48:17;;;;;;;6.63;2.30;;;;;;;6.77;88.16;100837.28;4987770;28;20466;-60
2021/01/12 07:50:45;;;;;;;3.42;1.83;;;;;;;6.76;87.99;100836.47;4975320;28;20161;-60
2021/01/12 07:53:13;;;;;;;6.55;1.73;;;;;;;6.76;87.95;100833.72;4975317;28;20069;-61
2021/01/12 07:55:43;;;;;;;6.45;2.60;;;;;;;6.73;87.64;100842.59;4992134;28;20070;-59
2021/01/12 07:58:11;;;;;;;4.75;2.13;;;;;;;6.72;87.91;100839.03;4985641;28;20106;-60
2021/01/12 08:00:38;;;;;;;8.65;2.25;;;;;;;6.75;87.77;100854.13;4963952;28;20051;-60
2021/01/12 08:03:05;;;;;;;3.70;2.10;;;;;;;6.69;87.85;100853.44;4994146;28;20046;-59
2021/01/12 08:05:31;;;;;;;5.00;1.35;;;;;;;6.68;88.08;100868.31;4994523;28;20129;-58
2021/01/12 08:08:08;;;;;;;10.52;2.00;;;;;;;6.66;87.45;100865.09;4994463;28;20061;-61
2021/01/12 08:10:40;;;;;;;7.18;1.92;;;;;;;6.59;87.49;100866.66;4992870;28;20073;-60
2021/01/12 08:13:13;;;;;;;10.25;2.22;;;;;;;6.60;87.61;100869.09;4984941;28;20044;-59
2021/01/12 08:15:44;;;;;;;9.30;2.13;;;;;;;6.57;87.64;100883.47;4972970;28;20105;-58
2021/01/12 08:18:11;;;;;;;11.23;3.38;;;;;;;6.56;87.61;100887.38;4973022;28;20031;-57
2021/01/12 08:20:38;;;;;;;16.33;3.08;;;;;;;6.57;87.58;100882.66;4972157;28;20501;-60
2021/01/12 08:23:05;;;;;;;12.00;2.60;;;;;;;6.56;87.67;100881.03;4967395;28;20105;-60
2021/01/12 08:25:35;;;;;;;13.38;3.33;;;;;;;6.58;87.43;100879.59;4969131;28;20034;-59
2021/01/12 08:28:04;;;;;;;12.00;2.65;;;;;;;6.59;87.30;100881.22;4971389;28;20799;-60
2021/01/12 08:30:32;;;;;;;6.07;1.98;;;;;;;6.62;87.49;100897.09;4966539;28;20043;-58
2021/01/12 08:33:07;;;;;;;15.60;3.63;;;;;;;6.59;87.36;100889.47;4959075;28;20047;-59
2021/01/12 08:35:38;;;;;;;13.45;3.60;;;;;;;6.58;87.56;100896.09;4953150;28;20038;-60
2021/01/12 08:38:07;;;;;;;13.02;3.45;;;;;;;6.59;87.39;100897.72;4969637;28;20134;-56
2021/01/12 08:40:41;;;;;;;9.73;2.42;;;;;;;6.59;87.58;100916.97;4970284;28;20047;-64
2021/01/12 08:43:17;;;;;;;13.77;2.92;;;;;;;6.59;87.29;100922.47;4969673;28;20105;-59
2021/01/12 08:45:45;;;;;;;9.18;3.22;;;;;;;6.58;87.64;100918.09;4971041;28;20047;-57
2021/01/12 08:48:15;;;;;;;8.43;1.60;;;;;;;6.59;87.18;100936.22;4984236;28;20101;-59
2021/01/12 08:50:46;;;;;;;5.35;1.80;;;;;;;6.61;86.95;100939.50;4970779;28;20090;-56
2021/01/12 08:53:25;;;;;;;9.75;1.83;;;;;;;6.58;86.74;100945.63;4953113;28;20156;-56
2021/01/12 08:56:12;;;;;;;6.70;1.70;;;;;;;6.57;86.94;100945.91;4984613;28;20043;-56
2021/01/12 08:58:38;;;;;;;11.05;2.20;;;;;;;6.58;86.76;100962.13;4979318;28;20073;-58
2021/01/12 09:01:05;;;;;;;10.18;3.42;;;;;;;6.60;86.77;100956.28;4991825;28;20129;-57
2021/01/12 09:03:32;;;;;;;8.57;1.20;;;;;;;6.60;86.84;100948.88;4983668;28;20089;-56
2021/01/12 09:05:59;;;;;;;4.95;1.25;;;;;;;6.59;86.49;100958.22;4989613;28;20050;-57
2021/01/12 09:08:28;;;;;;;2.70;0.98;;;;;;;6.61;86.71;100956.00;4988217;28;20034;-60
2021/01/12 09:10:54;;;;;;;5.35;1.88;;;;;;;6.64;86.55;100963.63;4986783;28;20822;-56
2021/01/12 09:13:28;;;;;;;9.38;1.52;;;;;;;6.64;86.64;100969.13;4956106;28;20062;-58
2021/01/12 09:15:55;;;;;;;9.43;1.38;;;;;;;6.68;86.55;100972.03;4986126;28;20125;-59
2021/01/12 09:18:23;;;;;;;15.93;2.80;;;;;;;6.68;86.34;100983.06;4988311;28;20046;-57
2021/01/12 09:20:52;;;;;;;6.35;1.65;;;;;;;6.68;86.31;100986.63;4988119;28;20050;-60
2021/01/12 09:23:19;;;;;;;8.90;1.92;;;;;;;6.68;86.25;100977.56;4975510;28;20046;-57
2021/01/12 09:26:03;;;;;;;11.10;2.35;;;;;;;6.68;86.35;100994.06;4988548;28;20101;-59
2021/01/12 09:28:39;;;;;;;10.85;2.05;;;;;;;6.70;86.30;100997.31;4989310;28;20567;-59
2021/01/12 09:31:09;;;;;;;12.52;2.15;;;;;;;6.72;86.34;100998.59;4988610;28;20161;-58
2021/01/12 09:33:39;;;;;;;24.60;2.75;;;;;;;6.75;86.09;101014.50;4988054;28;20047;-58
2021/01/12 09:36:08;;;;;;;16.20;2.70;;;;;;;6.73;86.05;101016.75;4970973;28;20137;-59
2021/01/12 09:38:35;;;;;;;28.48;3.95;;;;;;;6.77;86.12;101007.88;4987551;28;20042;-55
2021/01/12 09:41:03;;;;;;;17.10;2.55;;;;;;;6.78;85.72;101010.31;4987965;28;20046;-57
2021/01/12 09:43:30;;;;;;;20.50;2.30;;;;;;;6.75;85.82;101025.50;4987628;28;20057;-57
2021/01/12 09:45:57;;;;;;;11.35;1.90;;;;;;;6.74;85.80;101032.16;4970900;28;20512;-59
2021/01/12 09:48:24;;;;;;;5.68;1.35;;;;;;;6.77;85.66;101035.41;4988357;28;20062;-59
2021/01/12 09:50:51;;;;;;;16.65;2.42;;;;;;;6.77;85.56;101040.91;4988602;28;20050;-59
2021/01/12 09:53:20;;;;;;;13.88;2.03;;;;;;;6.78;85.14;101045.28;4991813;28;20066;-58
2021/01/12 09:55:46;;;;;;;10.98;2.33;;;;;;;6.80;85.28;101052.09;4991080;28;20818;-56
2021/01/12 09:58:25;;;;;;;21.88;2.42;;;;;;;6.80;85.20;101059.53;4990910;28;20063;-56
2021/01/12 10:00:51;;;;;;;25.58;2.10;;;;;;;6.83;84.99;101056.16;5001169;28;20077;-59
2021/01/12 10:03:20;;;;;;;14.65;2.28;;;;;;;6.81;85.19;101074.91;4993664;28;20052;-58
2021/01/12 10:05:47;;;;;;;7.82;1.52;;;;;;;6.83;85.00;101067.97;4991223;28;20133;-57
2021/01/12 10:08:13;;;;;;;6.15;1.35;;;;;;;6.84;85.02;101071.53;4990779;28;20460;-58
2021/01/12 10:10:41;;;;;;;10.70;2.25;;;;;;;6.89;84.97;101077.72;5003493;28;20045;-59
2021/01/12 10:13:07;;;;;;;8.38;1.73;;;;;;;6.91;85.08;101089.22;4973532;28;20126;-58
2021/01/12 10:15:34;;;;;;;7.53;1.02;;;;;;;6.90;84.80;101097.81;4964337;28;20161;-57
2021/01/12 10:18:00;;;;;;;7.07;1.60;;;;;;;6.91;84.99;101088.44;4990620;28;20395;-57
2021/01/12 10:20:27;;;;;;;5.72;1.17;;;;;;;6.93;84.96;101099.94;4972595;28;20046;-58
2021/01/12 10:22:53;;;;;;;9.52;1.33;;;;;;;6.94;84.83;101102.38;4991180;28;20046;-60
2021/01/12 10:25:20;;;;;;;3.03;0.80;;;;;;;6.93;84.70;101111.78;4990465;28;20042;-55
2021/01/12 10:27:46;;;;;;;7.38;1.45;;;;;;;6.95;84.58;101112.28;4991038;28;20042;-57
2021/01/12 10:30:14;;;;;;;6.25;1.08;;;;;;;6.93;84.51;101113.72;4991507;28;20046;-60
2021/01/12 10:32:45;;;;;;;4.32;0.65;;;;;;;6.93;84.37;101127.47;4991089;28;20057;-58
2021/01/12 10:35:12;;;;;;;7.15;1.08;;;;;;;6.98;84.55;101121.84;4991114;28;20038;-58
2021/01/12 10:37:39;;;;;;;5.25;0.77;;;;;;;7.00;84.31;101122.34;4990373;28;20137;-59
2021/01/12 10:40:10;;;;;;;4.57;0.95;;;;;;;6.97;84.27;101129.28;4990650;28;20412;-60
2021/01/12 10:42:42;;;;;;;2.20;0.90;;;;;;;6.96;83.89;101140.63;4974878;28;20070;-59
2021/01/12 10:45:10;;;;;;;3.50;0.85;;;;;;;6.93;84.12;101132.97;4991287;28;20132;-60
2021/01/12 10:47:43;;;;;;;6.93;0.88;;;;;;;6.94;84.04;101135.41;4991028;28;20070;-58
2021/01/12 10:50:11;;;;;;;3.70;0.80;;;;;;;6.92;83.85;101132.16;4991081;28;20057;-57
2021/01/12 10:52:38;;;;;;;2.85;0.70;;;;;;;6.93;83.87;101141.25;4989953;28;20078;-60
2021/01/12 10:55:05;;;;;;;4.20;1.30;;;;;;;6.95;83.68;101147.25;4990093;28;20050;-59
2021/01/12 10:57:31;;;;;;;2.03;0.95;;;;;;;6.91;83.40;101141.53;4972936;28;20058;-59
2021/01/12 10:59:58;;;;;;;5.03;1.15;;;;;;;6.91;83.43;101147.03;4975655;28;20050;-59
2021/01/12 11:02:34;;;;;;;7.35;1.50;;;;;;;6.94;83.10;101151.09;4977473;28;20050;-57
2021/01/12 11:05:01;;;;;;;5.82;0.75;;;;;;;6.92;83.14;101151.44;4954326;28;20043;-61
2021/01/12 11:07:41;;;;;;;2.78;0.60;;;;;;;6.90;82.38;101136.34;4970913;28;20386;-60
2021/01/12 11:10:08;;;;;;;;;;;;;;;6.81;80.91;101146.47;4977435;28;20133;-60
2021/01/12 11:12:35;;;;;;;3.85;0.98;;;;;;;6.82;82.79;101159.94;4969843;28;19926;-58
2021/01/12 11:15:03;;;;;;;2.83;1.75;;;;;;;6.82;82.99;101148.09;4953305;28;20660;-57
2021/01/12 11:17:30;;;;;;;2.75;0.90;;;;;;;6.82;82.37;101159.09;4972055;28;20083;-58
2021/01/12 11:20:00;;;;;;;3.47;0.90;;;;;;;6.85;82.25;101152.97;4968391;28;20473;-57
2021/01/12 11:22:27;;;;;;;6.45;1.65;;;;;;;6.85;82.21;101147.47;4970294;28;20050;-57
2021/01/12 11:25:00;;;;;;;2.15;0.82;;;;;;;6.84;82.10;101156.84;4969732;28;20043;-57
2021/01/12 11:27:28;;;;;;;5.03;0.88;;;;;;;6.83;81.95;101164.28;4970395;28;20066;-55
2021/01/12 11:29:54;;;;;;;13.80;2.33;;;;;;;6.84;81.70;101162.34;4970548;28;20100;-56
2021/01/12 11:32:21;;;;;;;2.47;1.00;;;;;;;6.79;81.57;101154.22;4971251;28;20070;-58
2021/01/12 11:34:49;;;;;;;3.85;0.90;;;;;;;6.80;81.65;101155.84;4953509;28;20042;-57
2021/01/12 11:37:20;;;;;;;;;;;;;;;6.80;80.90;101158.59;4970965;28;20038;-58
2021/01/12 11:39:46;;;;;;;6.72;0.70;;;;;;;6.84;81.28;101160.41;4953561;28;19926;-56
2021/01/12 11:42:14;;;;;;;5.65;1.90;;;;;;;6.86;81.01;101163.66;4969201;28;20065;-57